createdAt,value
2019-05-19T00:03:33.584Z,16.49
2019-05-19T00:08:56.296Z,16.37
2019-05-19T00:14:19.211Z,16.23
2019-05-19T00:19:42.743Z,16.13
2019-05-19T00:25:06.812Z,16.09
2019-05-19T00:30:30.147Z,15.98
2019-05-19T00:35:52.890Z,16.03
2019-05-19T00:41:16.121Z,16.05
2019-05-19T00:46:39.921Z,16.16
2019-05-19T00:52:03.469Z,16.26
2019-05-19T00:57:27.418Z,16.20
2019-05-19T01:02:50.585Z,15.97
2019-05-19T01:08:14.169Z,15.69
2019-05-19T01:13:37.590Z,15.58
2019-05-19T01:19:00.434Z,15.54
2019-05-19T01:24:23.969Z,15.63
2019-05-19T01:29:47.255Z,15.44
2019-05-19T01:35:11.169Z,15.29
2019-05-19T01:40:34.708Z,15.18
2019-05-19T01:45:58.065Z,15.21
2019-05-19T01:51:21.598Z,15.11
2019-05-19T01:56:44.833Z,15.04
2019-05-19T02:02:08.087Z,15.06
2019-05-19T02:07:30.879Z,15.20
2019-05-19T02:12:53.962Z,15.21
2019-05-19T02:18:17.256Z,15.23
2019-05-19T02:23:40.168Z,15.08
2019-05-19T02:29:02.943Z,15.07
2019-05-19T02:34:26.344Z,15.08
2019-05-19T02:39:49.299Z,14.88
2019-05-19T02:45:13.766Z,14.72
2019-05-19T02:50:51.772Z,14.75
2019-05-19T02:56:06.157Z,14.61
2019-05-19T03:01:29.340Z,14.55
2019-05-19T03:06:52.616Z,14.59
2019-05-19T03:12:16.241Z,14.66
2019-05-19T03:17:39.009Z,14.66
2019-05-19T03:23:02.127Z,14.84
2019-05-19T03:28:25.055Z,14.99
2019-05-19T03:33:52.870Z,14.94
2019-05-19T03:39:15.442Z,14.94
2019-05-19T03:44:38.513Z,14.80
2019-05-19T03:50:01.866Z,14.85
2019-05-19T03:55:25.192Z,14.95
2019-05-19T04:00:48.850Z,14.58
2019-05-19T04:06:12.316Z,14.45
2019-05-19T04:11:35.902Z,14.60
2019-05-19T04:16:59.110Z,14.78
2019-05-19T04:22:22.407Z,14.68
2019-05-19T04:27:46.032Z,14.63
2019-05-19T04:33:09.256Z,14.60
2019-05-19T04:38:32.530Z,14.52
2019-05-19T04:43:56.121Z,14.69
2019-05-19T04:49:19.792Z,14.68
2019-05-19T04:54:43.299Z,14.70
2019-05-19T05:00:07.502Z,14.86
2019-05-19T05:05:31.187Z,14.97
2019-05-19T05:10:54.261Z,15.02
2019-05-19T05:16:17.331Z,15.27
2019-05-19T05:21:40.611Z,15.40
2019-05-19T05:27:03.590Z,15.61
2019-05-19T05:32:26.705Z,15.60
2019-05-19T05:37:50.297Z,15.49
2019-05-19T05:43:13.726Z,15.53
2019-05-19T05:48:37.319Z,15.66
2019-05-19T05:54:00.628Z,15.71
2019-05-19T05:59:23.614Z,15.74
2019-05-19T06:04:47.099Z,15.78
2019-05-19T06:10:10.602Z,15.85
2019-05-19T06:15:33.309Z,15.96
2019-05-19T06:20:56.467Z,16.06
2019-05-19T06:26:19.599Z,16.25
2019-05-19T06:31:43.025Z,16.35
2019-05-19T06:37:06.235Z,16.50
2019-05-19T06:42:29.808Z,16.77
2019-05-19T06:47:52.679Z,16.98
2019-05-19T06:53:16.274Z,17.00
2019-05-19T06:58:39.569Z,17.11
2019-05-19T07:04:03.108Z,17.23
2019-05-19T07:09:26.900Z,17.43
2019-05-19T07:14:50.437Z,17.63
2019-05-19T07:20:13.846Z,17.77
2019-05-19T07:25:37.491Z,17.93
2019-05-19T07:31:00.765Z,18.14
2019-05-19T07:36:24.389Z,18.33
2019-05-19T07:41:47.991Z,18.53
2019-05-19T07:47:11.196Z,18.77
2019-05-19T07:52:33.767Z,18.93
2019-05-19T07:57:57.394Z,19.16
2019-05-19T08:03:21.178Z,19.38
2019-05-19T08:08:44.815Z,19.64
2019-05-19T08:14:07.828Z,19.87
2019-05-19T08:19:31.287Z,19.79
2019-05-19T08:24:54.082Z,20.31
2019-05-19T08:30:17.214Z,20.64
2019-05-19T08:35:40.628Z,20.57
2019-05-19T08:41:03.880Z,20.84
2019-05-19T08:46:27.053Z,21.06
2019-05-19T08:51:50.332Z,21.15
2019-05-19T08:57:13.969Z,21.16
2019-05-19T09:02:37.055Z,21.25
2019-05-19T09:08:00.650Z,21.29
2019-05-19T09:13:24.196Z,21.21
2019-05-19T09:18:47.579Z,21.34
2019-05-19T09:24:10.613Z,21.61
2019-05-19T09:29:34.056Z,21.90
2019-05-19T09:34:57.401Z,22.17
2019-05-19T09:40:20.775Z,21.99
2019-05-19T09:45:43.978Z,21.95
2019-05-19T09:51:07.256Z,22.03
2019-05-19T09:56:31.242Z,22.47
2019-05-19T10:01:55.025Z,22.78
2019-05-19T10:07:18.415Z,22.59
2019-05-19T10:12:41.663Z,22.72
2019-05-19T10:18:05.085Z,22.98
2019-05-19T10:23:28.785Z,23.36
2019-05-19T10:28:51.978Z,23.38
2019-05-19T10:34:15.219Z,23.43
2019-05-19T10:39:38.830Z,23.47
2019-05-19T10:45:02.307Z,23.50
2019-05-19T10:50:25.904Z,23.71
2019-05-19T10:55:49.623Z,24.20
2019-05-19T11:01:12.634Z,24.90
2019-05-19T11:06:36.078Z,25.54
2019-05-19T11:11:58.738Z,24.87
2019-05-19T11:17:22.079Z,24.99
2019-05-19T11:22:45.617Z,24.79
2019-05-19T11:28:09.022Z,23.72
2019-05-19T11:33:32.641Z,23.60
2019-05-19T11:38:56.117Z,26.07
2019-05-19T11:44:19.733Z,28.36
2019-05-19T11:49:43.278Z,29.46
2019-05-19T11:55:06.854Z,30.06
2019-05-19T12:00:30.511Z,27.28
2019-05-19T12:05:53.838Z,26.40
2019-05-19T12:11:17.205Z,25.63
2019-05-19T12:16:40.681Z,28.45
2019-05-19T12:22:03.887Z,32.51
2019-05-19T12:27:27.527Z,32.71
2019-05-19T12:32:51.258Z,34.16
2019-05-19T12:38:14.483Z,33.60
2019-05-19T12:43:38.066Z,33.45
2019-05-19T12:49:01.310Z,32.79
2019-05-19T12:54:24.565Z,31.57
2019-05-19T12:59:47.261Z,31.51
2019-05-19T13:05:11.428Z,26.99
2019-05-19T13:10:34.682Z,25.88
2019-05-19T13:15:57.966Z,27.61
2019-05-19T13:21:21.474Z,26.39
2019-05-19T13:26:56.130Z,25.28
2019-05-19T13:32:10.102Z,26.50
2019-05-19T13:37:33.707Z,26.63
2019-05-19T13:42:57.334Z,27.16
2019-05-19T13:48:20.349Z,27.38
2019-05-19T13:53:43.625Z,26.71
2019-05-19T13:59:07.237Z,25.44
2019-05-19T14:04:31.234Z,24.49
2019-05-19T14:09:54.345Z,23.59
2019-05-19T14:15:18.428Z,23.40
2019-05-19T14:20:41.994Z,23.13
2019-05-19T14:26:05.437Z,23.05
2019-05-19T14:31:28.741Z,23.38
2019-05-19T14:36:51.637Z,23.73
2019-05-19T14:42:16.536Z,23.93
2019-05-19T14:47:39.436Z,22.85
2019-05-19T14:53:02.604Z,22.61
2019-05-19T14:58:26.171Z,22.72
2019-05-19T15:03:49.362Z,22.89
2019-05-19T15:09:12.628Z,23.30
2019-05-19T15:14:36.115Z,23.33
2019-05-19T15:19:59.384Z,22.48
2019-05-19T15:25:22.612Z,21.48
2019-05-19T15:30:46.424Z,21.52
2019-05-19T15:36:09.902Z,21.58
2019-05-19T15:41:33.763Z,21.79
2019-05-19T15:46:57.162Z,21.72
2019-05-19T15:52:19.964Z,21.78
2019-05-19T15:57:43.473Z,21.72
2019-05-19T16:03:08.325Z,21.90
2019-05-19T16:08:31.754Z,21.88
2019-05-19T16:13:55.343Z,21.77
2019-05-19T16:19:18.662Z,21.93
2019-05-19T16:24:42.078Z,22.11
2019-05-19T16:30:07.157Z,23.80
2019-05-19T16:35:30.541Z,22.95
2019-05-19T16:40:53.939Z,22.62
2019-05-19T16:46:17.251Z,22.28
2019-05-19T16:51:41.025Z,22.03
2019-05-19T16:57:04.244Z,21.74
2019-05-19T17:02:27.685Z,21.72
2019-05-19T17:07:51.193Z,21.57
2019-05-19T17:13:14.761Z,21.49
2019-05-19T17:18:38.236Z,21.51
2019-05-19T17:24:01.588Z,21.43
2019-05-19T17:29:25.185Z,21.51
2019-05-19T17:34:51.916Z,21.40
2019-05-19T17:40:16.147Z,21.36
2019-05-19T17:45:38.982Z,21.35
2019-05-19T17:51:03.451Z,21.46
2019-05-19T17:56:29.240Z,21.47
2019-05-19T18:02:00.190Z,21.40
2019-05-19T18:07:23.608Z,21.47
2019-05-19T18:12:46.985Z,21.38
2019-05-19T18:18:09.995Z,21.36
2019-05-19T18:23:33.447Z,21.29
2019-05-19T18:34:19.484Z,21.13
2019-05-19T18:39:42.293Z,21.06
2019-05-19T18:45:07.293Z,21.05
2019-05-19T18:50:30.730Z,20.97
2019-05-19T18:55:54.524Z,20.92
2019-05-19T19:01:17.793Z,20.87
2019-05-19T19:06:41.123Z,20.84
2019-05-19T19:12:04.731Z,20.88
2019-05-19T19:17:27.980Z,20.86
2019-05-19T19:22:51.434Z,20.78
2019-05-19T19:28:14.654Z,20.70
2019-05-19T19:33:51.956Z,20.65
2019-05-19T19:39:14.918Z,20.53
2019-05-19T19:44:38.454Z,20.47
2019-05-19T19:50:01.970Z,20.43
2019-05-19T19:55:25.146Z,20.44
2019-05-19T20:00:49.102Z,20.38
2019-05-19T20:06:12.661Z,20.34
2019-05-19T20:11:36.094Z,20.32
2019-05-19T20:16:59.897Z,20.24
2019-05-19T20:22:23.347Z,20.26
2019-05-19T20:27:47.368Z,20.21
2019-05-19T20:33:10.292Z,20.19
2019-05-19T20:38:34.265Z,20.18
2019-05-19T20:43:57.942Z,20.19
2019-05-19T20:49:21.402Z,19.87
2019-05-19T20:54:44.345Z,19.58
2019-05-19T21:00:08.752Z,19.48
2019-05-19T21:05:32.088Z,19.50
2019-05-19T21:10:55.409Z,19.50
2019-05-19T21:16:18.904Z,19.51
2019-05-19T21:21:42.107Z,19.54
2019-05-19T21:27:05.590Z,19.54
2019-05-19T21:32:28.768Z,19.53
2019-05-19T21:37:52.152Z,19.47
2019-05-19T21:43:15.813Z,19.36
2019-05-19T21:48:39.113Z,19.24
2019-05-19T21:54:02.701Z,19.21
2019-05-19T21:59:25.777Z,19.10
2019-05-19T22:04:49.075Z,19.07
2019-05-19T22:10:12.867Z,18.98
2019-05-19T22:15:36.288Z,18.86
2019-05-19T22:20:59.542Z,18.78
2019-05-19T22:26:22.693Z,18.71
2019-05-19T22:31:46.142Z,18.62
2019-05-19T22:37:09.860Z,18.56
2019-05-19T22:42:33.261Z,18.48
2019-05-19T22:47:57.099Z,18.35
2019-05-19T22:53:20.647Z,18.31
2019-05-19T22:58:44.059Z,18.35
2019-05-19T23:04:07.316Z,18.30
2019-05-19T23:09:30.826Z,18.23
2019-05-19T23:14:53.944Z,18.26
2019-05-19T23:20:17.553Z,18.25
2019-05-19T23:25:41.012Z,18.09
2019-05-19T23:31:03.825Z,18.00
2019-05-19T23:36:26.378Z,17.95
2019-05-19T23:41:50.139Z,17.78
2019-05-19T23:47:13.252Z,17.80
2019-05-19T23:52:36.714Z,17.94
2019-05-19T23:58:00.202Z,17.75
